Klamath Falls, Oregon
Current Conditions -  °F | °C
As of 11:53 AM on Monday 24 Nov 2014 (Local Time) from KLMT Reporting Station
Clear Clear  
Wind Chill: 41°   Ceiling: Unl
Heat Index: 41°   Visibility: 10mi
Dew Point: 31°   Wind: 0mph
Humidity: 67%   Direction: NA
Pressure: 30.43"   Gusts: NA
Location:  42.22°N, 121.78°W
Report Text: KLMT 241953Z 00000KT 10SM CLR 05/M01 A3043 RMK AO2 SLP322 T00501006
Loading
Personal Weather Stations






























Interactive Weather Map New forecast layout! Learn more

10-Day Weather Forecast

Advertisements
Track Severe Weather on mobile